createdAt,value
2023-05-19T00:00:37.130Z,13.60
2023-05-19T00:03:08.960Z,13.60
2023-05-19T00:05:40.806Z,13.62
2023-05-19T00:08:11.169Z,13.58
2023-05-19T00:10:40.548Z,13.54
2023-05-19T00:13:09.482Z,13.50
2023-05-19T00:15:38.829Z,13.48
2023-05-19T00:18:10.038Z,13.49
2023-05-19T00:20:38.911Z,13.45
2023-05-19T00:23:07.656Z,13.47
2023-05-19T00:25:36.322Z,13.44
2023-05-19T00:28:05.408Z,13.34
2023-05-19T00:30:34.259Z,13.29
2023-05-19T00:33:03.137Z,13.23
2023-05-19T00:35:33.224Z,13.23
2023-05-19T00:38:01.907Z,13.14
2023-05-19T00:40:31.314Z,13.12
2023-05-19T00:43:00.462Z,13.07
2023-05-19T00:45:29.561Z,13.04
2023-05-19T00:47:58.501Z,13.05
2023-05-19T00:50:28.397Z,13.06
2023-05-19T00:52:58.454Z,13.05
2023-05-19T00:55:29.565Z,13.00
2023-05-19T00:57:58.484Z,13.06
2023-05-19T01:00:27.168Z,13.00
2023-05-19T01:02:56.149Z,13.02
2023-05-19T01:05:24.825Z,13.04
2023-05-19T01:07:55.561Z,13.07
2023-05-19T01:10:25.648Z,13.08
2023-05-19T01:12:54.324Z,13.08
2023-05-19T01:15:23.336Z,13.04
2023-05-19T01:17:57.157Z,13.04
2023-05-19T01:20:33.212Z,13.05
2023-05-19T01:23:17.190Z,13.01
2023-05-19T01:26:13.659Z,13.03
2023-05-19T01:28:58.780Z,13.01
2023-05-19T01:31:29.007Z,13.00
2023-05-19T01:33:58.413Z,13.02
2023-05-19T01:36:27.635Z,13.03
2023-05-19T01:39:01.399Z,13.00
2023-05-19T01:41:30.715Z,12.99
2023-05-19T01:43:59.514Z,12.97
2023-05-19T01:46:29.636Z,12.97
2023-05-19T01:48:59.066Z,12.89
2023-05-19T01:51:28.527Z,12.87
2023-05-19T01:53:57.464Z,12.83
2023-05-19T01:56:33.713Z,12.81
2023-05-19T01:59:09.835Z,12.75
2023-05-19T02:01:47.751Z,12.74
2023-05-19T02:04:21.545Z,12.78
2023-05-19T02:06:56.373Z,12.75
2023-05-19T02:09:34.067Z,12.75
2023-05-19T02:12:07.504Z,12.76
2023-05-19T02:14:41.418Z,12.76
2023-05-19T02:17:13.646Z,12.82
2023-05-19T02:19:42.634Z,12.84
2023-05-19T02:22:11.456Z,12.88
2023-05-19T02:24:41.425Z,12.86
2023-05-19T02:27:10.061Z,12.87
2023-05-19T02:29:38.741Z,12.85
2023-05-19T02:32:08.475Z,12.83
2023-05-19T02:34:38.570Z,12.87
2023-05-19T02:37:07.802Z,12.86
2023-05-19T02:39:36.436Z,12.86
2023-05-19T02:42:05.579Z,12.87
2023-05-19T02:44:34.379Z,12.82
2023-05-19T02:47:03.135Z,12.80
2023-05-19T02:49:35.769Z,12.78
2023-05-19T02:52:06.842Z,12.70
2023-05-19T02:54:36.173Z,12.59
2023-05-19T02:57:05.139Z,12.52
2023-05-19T02:59:33.811Z,12.48
2023-05-19T03:02:03.258Z,12.43
2023-05-19T03:04:31.930Z,12.37
2023-05-19T03:07:00.593Z,12.27
2023-05-19T03:09:31.249Z,12.28
2023-05-19T03:12:03.890Z,12.25
2023-05-19T03:14:33.574Z,12.24
2023-05-19T03:17:02.331Z,12.25
2023-05-19T03:19:32.434Z,12.21
2023-05-19T03:22:01.050Z,12.11
2023-05-19T03:24:31.044Z,12.02
2023-05-19T03:26:59.680Z,11.89
2023-05-19T03:29:28.376Z,11.87
2023-05-19T03:31:57.053Z,11.83
2023-05-19T03:34:25.794Z,11.74
2023-05-19T03:36:54.399Z,11.61
2023-05-19T03:39:23.046Z,11.47
2023-05-19T03:41:53.002Z,11.38
2023-05-19T03:44:21.685Z,11.43
2023-05-19T03:46:50.401Z,11.42
2023-05-19T03:49:19.170Z,11.41
2023-05-19T03:51:47.852Z,11.42
2023-05-19T03:54:16.916Z,11.36
2023-05-19T03:56:46.063Z,11.32
2023-05-19T03:59:16.123Z,11.30
2023-05-19T04:01:44.780Z,11.28
2023-05-19T04:04:13.417Z,11.28
2023-05-19T04:06:42.070Z,11.27
2023-05-19T04:09:13.783Z,11.26
2023-05-19T04:11:42.959Z,11.22
2023-05-19T04:14:11.613Z,11.25
2023-05-19T04:16:41.998Z,11.20
2023-05-19T04:19:10.778Z,11.09
2023-05-19T04:21:39.462Z,11.08
2023-05-19T04:24:08.492Z,11.10
2023-05-19T04:26:38.347Z,11.11
2023-05-19T04:29:07.053Z,11.16
2023-05-19T04:31:36.434Z,11.10
2023-05-19T04:34:07.837Z,11.05
2023-05-19T04:36:36.620Z,11.00
2023-05-19T04:39:07.893Z,10.95
2023-05-19T04:41:36.588Z,10.91
2023-05-19T04:44:05.256Z,10.92
2023-05-19T04:46:33.953Z,10.95
2023-05-19T04:49:03.159Z,11.00
2023-05-19T04:51:33.287Z,11.04
2023-05-19T04:54:02.311Z,11.11
2023-05-19T04:56:30.930Z,11.17
2023-05-19T04:58:59.647Z,11.21
2023-05-19T05:01:28.395Z,11.25
2023-05-19T05:03:58.931Z,11.29
2023-05-19T05:06:28.605Z,11.34
2023-05-19T05:08:58.595Z,11.21
2023-05-19T05:11:28.192Z,11.13
2023-05-19T05:13:58.082Z,11.18
2023-05-19T05:16:27.984Z,11.25
2023-05-19T05:18:57.515Z,11.32
2023-05-19T05:21:27.162Z,11.45
2023-05-19T05:23:56.356Z,11.55
2023-05-19T05:26:30.737Z,11.70
2023-05-19T05:28:59.414Z,11.75
2023-05-19T05:31:28.090Z,11.81
2023-05-19T05:33:56.777Z,11.98
2023-05-19T05:36:25.456Z,12.20
2023-05-19T05:38:54.137Z,12.41
2023-05-19T05:41:22.823Z,12.57
2023-05-19T05:43:52.768Z,12.73
2023-05-19T05:46:21.502Z,12.87
2023-05-19T05:48:50.833Z,13.01
2023-05-19T05:51:22.484Z,13.13
2023-05-19T05:53:54.075Z,13.15
2023-05-19T05:56:23.244Z,13.24
2023-05-19T05:58:53.729Z,13.27
2023-05-19T06:01:23.957Z,13.33
2023-05-19T06:03:52.678Z,13.33
2023-05-19T06:06:21.311Z,13.36
2023-05-19T06:08:50.005Z,13.39
2023-05-19T06:11:19.581Z,13.43
2023-05-19T06:13:48.307Z,13.44
2023-05-19T06:16:18.350Z,13.45
2023-05-19T06:18:47.103Z,13.54
2023-05-19T06:21:17.536Z,13.73
2023-05-19T06:23:46.247Z,13.69
2023-05-19T06:26:15.381Z,13.76
2023-05-19T06:28:44.032Z,13.78
2023-05-19T06:31:12.670Z,13.84
2023-05-19T06:33:42.679Z,13.91
2023-05-19T06:36:12.045Z,13.97
2023-05-19T06:38:40.990Z,14.17
2023-05-19T06:41:09.788Z,14.15
2023-05-19T06:43:38.517Z,14.27
2023-05-19T06:46:07.147Z,14.44
2023-05-19T06:48:35.886Z,14.44
2023-05-19T06:51:06.316Z,14.44
2023-05-19T06:53:34.972Z,14.35
2023-05-19T06:56:03.621Z,14.32
2023-05-19T06:58:32.256Z,14.39
2023-05-19T07:01:00.956Z,14.37
2023-05-19T07:03:30.948Z,14.37
2023-05-19T07:05:59.854Z,14.27
2023-05-19T07:08:29.925Z,14.35
2023-05-19T07:10:58.603Z,14.32
2023-05-19T07:13:27.761Z,14.35
2023-05-19T07:15:56.672Z,14.27
2023-05-19T07:18:25.414Z,14.16
2023-05-19T07:20:54.299Z,14.18
2023-05-19T07:23:22.947Z,14.20
2023-05-19T07:25:55.302Z,14.18
2023-05-19T07:28:23.969Z,14.26
2023-05-19T07:30:53.195Z,14.03
2023-05-19T07:33:21.858Z,14.01
2023-05-19T07:35:50.521Z,14.01
2023-05-19T07:38:19.238Z,14.06
2023-05-19T07:40:47.943Z,14.00
2023-05-19T07:43:17.947Z,14.11
2023-05-19T07:45:46.735Z,14.14
2023-05-19T07:48:15.715Z,14.18
2023-05-19T07:50:44.552Z,14.20
2023-05-19T07:53:13.225Z,14.09
2023-05-19T07:55:41.937Z,14.12
2023-05-19T07:58:10.556Z,14.19
2023-05-19T08:00:42.940Z,14.19
2023-05-19T08:03:11.820Z,14.20
2023-05-19T08:05:40.637Z,14.13
2023-05-19T08:08:09.510Z,14.14
2023-05-19T08:10:38.172Z,14.15
2023-05-19T08:13:07.697Z,14.16
2023-05-19T08:15:36.845Z,14.14
2023-05-19T08:18:07.094Z,14.20
2023-05-19T08:20:36.735Z,14.26
2023-05-19T08:23:05.475Z,14.35
2023-05-19T08:25:34.229Z,14.18
2023-05-19T08:28:02.874Z,14.23
2023-05-19T08:30:31.745Z,14.27
2023-05-19T08:33:00.598Z,14.29
2023-05-19T08:35:30.731Z,14.36
2023-05-19T08:37:59.341Z,14.34
2023-05-19T08:40:31.724Z,14.08
2023-05-19T08:43:00.617Z,14.21
2023-05-19T08:45:29.800Z,14.36
2023-05-19T08:47:59.155Z,14.40
2023-05-19T08:50:33.486Z,14.47
2023-05-19T08:53:04.674Z,14.50
2023-05-19T08:55:36.332Z,14.53
2023-05-19T08:58:05.532Z,14.55
2023-05-19T09:00:35.168Z,14.49
2023-05-19T09:03:17.568Z,14.52
2023-05-19T09:05:49.462Z,14.56
2023-05-19T09:08:18.598Z,14.63
2023-05-19T09:10:47.371Z,14.77
2023-05-19T09:13:16.060Z,14.74
2023-05-19T09:15:45.594Z,14.67
2023-05-19T09:18:15.248Z,14.76
2023-05-19T09:20:44.998Z,14.73
2023-05-19T09:23:16.159Z,14.69
2023-05-19T09:25:49.308Z,14.75
2023-05-19T09:28:25.127Z,14.74
2023-05-19T09:31:03.488Z,14.77
2023-05-19T09:33:34.111Z,14.80
2023-05-19T09:36:03.391Z,14.84
2023-05-19T09:38:33.609Z,14.74
2023-05-19T09:41:02.527Z,14.65
2023-05-19T09:43:31.712Z,14.77
2023-05-19T09:46:01.592Z,14.83
2023-05-19T09:48:31.279Z,14.72
2023-05-19T09:51:02.420Z,14.72
2023-05-19T09:53:33.804Z,14.79
2023-05-19T09:56:03.649Z,14.77
2023-05-19T09:58:34.753Z,14.72
2023-05-19T10:01:04.410Z,14.61
2023-05-19T10:03:33.675Z,14.66
2023-05-19T10:06:02.840Z,14.69
2023-05-19T10:08:33.264Z,14.72
2023-05-19T10:11:02.200Z,14.76
2023-05-19T10:13:32.044Z,14.72
2023-05-19T10:16:01.782Z,14.52
2023-05-19T10:18:31.192Z,14.61
2023-05-19T10:21:00.295Z,14.70
2023-05-19T10:23:28.965Z,14.73
2023-05-19T10:25:59.927Z,14.84
2023-05-19T10:28:42.137Z,14.87
2023-05-19T10:31:14.756Z,15.00
2023-05-19T10:33:53.438Z,15.13
2023-05-19T10:36:40.640Z,15.20
2023-05-19T10:39:14.161Z,15.07
2023-05-19T10:41:48.474Z,14.66
2023-05-19T10:44:24.574Z,14.53
2023-05-19T10:46:55.651Z,14.69
2023-05-19T10:49:25.512Z,14.81
2023-05-19T10:51:59.168Z,14.87
2023-05-19T10:54:43.644Z,14.88
2023-05-19T10:57:17.546Z,14.78
2023-05-19T10:59:46.295Z,14.94
2023-05-19T11:02:39.901Z,15.01
2023-05-19T11:05:10.539Z,15.14
2023-05-19T11:07:42.691Z,15.10
2023-05-19T11:10:12.511Z,15.18
2023-05-19T11:12:44.064Z,15.24
2023-05-19T11:15:13.868Z,15.18
2023-05-19T11:17:44.027Z,15.12
2023-05-19T11:20:23.748Z,14.98
2023-05-19T11:23:08.380Z,14.96
2023-05-19T11:25:44.926Z,14.99
2023-05-19T11:28:17.337Z,15.05
2023-05-19T11:30:50.633Z,15.11
2023-05-19T11:33:20.957Z,15.08
2023-05-19T11:35:51.489Z,15.11
2023-05-19T11:38:20.421Z,14.96
2023-05-19T11:40:50.036Z,14.98
2023-05-19T11:43:20.112Z,15.08
2023-05-19T11:45:48.821Z,15.00
2023-05-19T11:48:18.267Z,15.15
2023-05-19T11:50:47.139Z,15.16
2023-05-19T11:53:16.407Z,15.22
2023-05-19T11:55:47.051Z,15.14
2023-05-19T11:58:16.206Z,15.07
2023-05-19T12:00:47.564Z,15.17
2023-05-19T12:03:17.404Z,15.19
2023-05-19T12:05:47.794Z,14.87
2023-05-19T12:08:18.153Z,14.99
2023-05-19T12:10:49.363Z,15.04
2023-05-19T12:13:18.040Z,14.88
2023-05-19T12:15:48.233Z,15.04
2023-05-19T12:18:17.053Z,15.19
2023-05-19T12:20:45.812Z,15.15
2023-05-19T12:23:15.026Z,15.32
2023-05-19T12:25:43.783Z,15.42
2023-05-19T12:28:12.465Z,15.35
2023-05-19T12:30:41.482Z,15.15
2023-05-19T12:33:11.878Z,15.24
2023-05-19T12:35:40.718Z,15.10
2023-05-19T12:38:09.420Z,15.19
2023-05-19T12:40:42.480Z,15.13
2023-05-19T12:43:20.117Z,15.22
2023-05-19T12:45:48.882Z,15.36
2023-05-19T12:48:20.006Z,15.46
2023-05-19T12:50:49.387Z,15.57
2023-05-19T12:53:18.773Z,15.34
2023-05-19T12:55:47.495Z,15.45
2023-05-19T12:58:16.758Z,15.48
2023-05-19T13:00:48.412Z,15.56
2023-05-19T13:03:19.632Z,15.57
2023-05-19T13:05:50.371Z,15.54
2023-05-19T13:08:20.560Z,15.64
2023-05-19T13:10:49.882Z,15.68
2023-05-19T13:13:18.720Z,15.69
2023-05-19T13:15:49.910Z,15.79
2023-05-19T13:18:20.080Z,15.58
2023-05-19T13:20:50.192Z,15.34
2023-05-19T13:23:19.281Z,15.27
2023-05-19T13:25:48.038Z,15.23
2023-05-19T13:28:16.709Z,15.32
2023-05-19T13:30:46.157Z,15.43
2023-05-19T13:33:15.096Z,15.38
2023-05-19T13:35:45.143Z,15.33
2023-05-19T13:38:14.615Z,15.31
2023-05-19T13:40:43.295Z,15.26
2023-05-19T13:43:11.941Z,15.25
2023-05-19T13:45:42.157Z,15.36
2023-05-19T13:48:11.767Z,15.41
2023-05-19T13:50:40.474Z,15.50
2023-05-19T13:53:11.522Z,15.69
2023-05-19T13:55:40.640Z,15.78
2023-05-19T13:58:10.976Z,15.86
2023-05-19T14:00:39.825Z,15.98
2023-05-19T14:03:08.673Z,15.95
2023-05-19T14:05:37.430Z,15.98
2023-05-19T14:08:06.766Z,16.00
2023-05-19T14:10:36.772Z,15.98
2023-05-19T14:13:30.355Z,15.93
2023-05-19T14:15:54.336Z,15.95
2023-05-19T14:18:22.979Z,15.95
2023-05-19T14:20:51.706Z,16.00
2023-05-19T14:23:21.540Z,16.05
2023-05-19T14:25:51.603Z,15.98
2023-05-19T14:28:20.794Z,15.96
2023-05-19T14:30:49.966Z,15.94
2023-05-19T14:33:19.374Z,15.87
2023-05-19T14:35:49.306Z,15.89
2023-05-19T14:38:18.055Z,15.87
2023-05-19T14:40:48.445Z,15.83
2023-05-19T14:43:18.688Z,15.90
2023-05-19T14:45:47.424Z,15.99
2023-05-19T14:48:16.248Z,15.98
2023-05-19T14:50:45.090Z,15.91
2023-05-19T14:53:13.716Z,15.76
2023-05-19T14:55:42.409Z,15.77
2023-05-19T14:58:27.039Z,15.77
2023-05-19T15:01:00.104Z,15.78
2023-05-19T15:03:28.946Z,15.78
2023-05-19T15:05:57.751Z,15.81
2023-05-19T15:08:26.533Z,15.80
2023-05-19T15:10:55.180Z,15.83
2023-05-19T15:13:23.850Z,15.78
2023-05-19T15:16:08.246Z,15.70
2023-05-19T15:18:45.197Z,15.73
2023-05-19T15:21:14.057Z,15.77
2023-05-19T15:23:42.783Z,15.84
2023-05-19T15:26:11.445Z,15.88
2023-05-19T15:28:40.223Z,15.93
2023-05-19T15:31:08.882Z,15.93
2023-05-19T15:33:37.731Z,15.90
2023-05-19T15:36:07.880Z,15.87
2023-05-19T15:38:37.180Z,15.91
2023-05-19T15:41:08.124Z,15.88
2023-05-19T15:43:36.919Z,15.96
2023-05-19T15:46:06.056Z,15.97
2023-05-19T15:48:34.917Z,16.05
2023-05-19T15:51:03.648Z,16.01
2023-05-19T15:53:33.701Z,16.01
2023-05-19T15:56:03.976Z,16.05
2023-05-19T15:58:33.425Z,16.04
2023-05-19T16:01:02.192Z,16.07
2023-05-19T16:03:31.007Z,16.05
2023-05-19T16:06:00.714Z,15.97
2023-05-19T16:08:29.628Z,16.05
2023-05-19T16:10:59.632Z,16.07
2023-05-19T16:13:28.354Z,16.13
2023-05-19T16:15:57.067Z,16.11
2023-05-19T16:18:25.916Z,16.03
2023-05-19T16:20:54.607Z,16.01
2023-05-19T16:23:24.745Z,16.02
2023-05-19T16:25:54.632Z,16.09
2023-05-19T16:28:25.117Z,16.03
2023-05-19T16:30:53.897Z,16.05
2023-05-19T16:33:22.515Z,16.09
2023-05-19T16:35:51.408Z,16.12
2023-05-19T16:38:20.392Z,16.18
2023-05-19T16:40:49.045Z,16.13
2023-05-19T16:43:17.734Z,16.11
2023-05-19T16:45:47.797Z,16.01
2023-05-19T16:48:16.566Z,16.03
2023-05-19T16:50:45.239Z,16.00
2023-05-19T16:53:13.914Z,15.93
2023-05-19T16:55:42.584Z,15.94
2023-05-19T16:58:11.601Z,15.95
2023-05-19T17:00:40.389Z,15.97
2023-05-19T17:03:11.664Z,15.97
2023-05-19T17:05:43.323Z,15.92
2023-05-19T17:08:12.599Z,15.78
2023-05-19T17:10:41.386Z,15.77
2023-05-19T17:13:10.038Z,15.76
2023-05-19T17:15:39.995Z,15.77
2023-05-19T17:18:12.630Z,15.78
2023-05-19T17:20:41.588Z,15.77
2023-05-19T17:23:10.607Z,15.78
2023-05-19T17:25:39.208Z,15.80
2023-05-19T17:28:07.881Z,15.78
2023-05-19T17:30:36.599Z,15.78
2023-05-19T17:33:05.762Z,15.82
2023-05-19T17:35:35.873Z,15.85
2023-05-19T17:38:04.599Z,15.84
2023-05-19T17:40:33.491Z,15.87
2023-05-19T17:43:02.394Z,15.77
2023-05-19T17:45:31.158Z,15.86
2023-05-19T17:47:59.940Z,15.83
2023-05-19T17:50:28.702Z,15.84
2023-05-19T17:52:59.303Z,15.82
2023-05-19T17:55:31.011Z,15.80
2023-05-19T17:58:00.276Z,15.78
2023-05-19T18:00:29.473Z,15.71
2023-05-19T18:02:58.988Z,15.70
2023-05-19T18:05:28.643Z,15.67
2023-05-19T18:07:58.919Z,15.64
2023-05-19T18:10:28.553Z,15.54
2023-05-19T18:12:57.213Z,15.54
2023-05-19T18:15:25.868Z,15.50
2023-05-19T18:17:54.563Z,15.47
2023-05-19T18:20:23.340Z,15.42
2023-05-19T18:22:53.145Z,15.40
2023-05-19T18:25:23.125Z,15.34
2023-05-19T18:27:55.627Z,15.30
2023-05-19T18:30:24.622Z,15.24
2023-05-19T18:32:53.271Z,15.23
2023-05-19T18:35:22.012Z,15.18
2023-05-19T18:37:50.716Z,15.16
2023-05-19T18:40:19.412Z,15.09
2023-05-19T18:42:49.467Z,15.05
2023-05-19T18:45:18.235Z,14.96
2023-05-19T18:47:46.925Z,14.94
2023-05-19T18:50:16.512Z,14.92
2023-05-19T18:52:45.177Z,14.90
2023-05-19T18:55:13.777Z,14.88
2023-05-19T18:57:42.461Z,14.84
2023-05-19T19:00:14.570Z,14.76
2023-05-19T19:02:43.281Z,14.69
2023-05-19T19:05:13.769Z,14.59
2023-05-19T19:07:43.252Z,14.50
2023-05-19T19:10:12.232Z,14.45
2023-05-19T19:12:40.959Z,14.43
2023-05-19T19:15:10.873Z,14.43
2023-05-19T19:17:41.173Z,14.40
2023-05-19T19:20:11.083Z,14.36
2023-05-19T19:22:39.851Z,14.37
2023-05-19T19:25:09.315Z,14.37
2023-05-19T19:27:37.966Z,14.34
2023-05-19T19:30:08.023Z,14.32
2023-05-19T19:32:36.791Z,14.31
2023-05-19T19:35:07.332Z,14.30
2023-05-19T19:37:36.049Z,14.26
2023-05-19T19:40:05.226Z,14.27
2023-05-19T19:42:34.090Z,14.23
2023-05-19T19:45:02.938Z,14.20
2023-05-19T19:47:32.716Z,14.17
2023-05-19T19:50:05.477Z,14.13
2023-05-19T19:52:35.499Z,14.12
2023-05-19T19:55:04.492Z,14.15
2023-05-19T19:57:34.241Z,14.12
2023-05-19T20:00:08.054Z,14.12
2023-05-19T20:02:45.548Z,14.08
2023-05-19T20:05:24.473Z,14.07
2023-05-19T20:07:54.527Z,14.08
2023-05-19T20:10:23.270Z,14.04
2023-05-19T20:12:52.196Z,14.02
2023-05-19T20:15:21.114Z,13.97
2023-05-19T20:17:49.788Z,13.96
2023-05-19T20:20:18.664Z,13.98
2023-05-19T20:22:47.630Z,13.99
2023-05-19T20:25:17.744Z,14.00
2023-05-19T20:27:46.414Z,13.98
2023-05-19T20:30:15.080Z,13.98
2023-05-19T20:32:43.754Z,13.98
2023-05-19T20:35:12.522Z,13.97
2023-05-19T20:37:41.358Z,13.95
2023-05-19T20:40:11.111Z,13.93
2023-05-19T20:42:41.771Z,13.93
2023-05-19T20:45:10.679Z,13.90
2023-05-19T20:47:39.411Z,13.90
2023-05-19T20:50:09.079Z,13.90
2023-05-19T20:52:37.696Z,13.86
2023-05-19T20:55:06.727Z,13.84
2023-05-19T20:57:35.800Z,13.86
2023-05-19T21:00:07.009Z,13.87
2023-05-19T21:02:35.795Z,13.84
2023-05-19T21:05:05.356Z,13.82
2023-05-19T21:07:34.180Z,13.82
2023-05-19T21:10:02.892Z,13.79
2023-05-19T21:12:34.272Z,13.78
2023-05-19T21:15:05.950Z,13.76
2023-05-19T21:17:34.678Z,13.73
2023-05-19T21:20:03.852Z,13.74
2023-05-19T21:22:32.805Z,13.79
2023-05-19T21:25:01.496Z,13.78
2023-05-19T21:27:32.185Z,13.80
2023-05-19T21:30:00.842Z,13.83
2023-05-19T21:32:30.907Z,13.83
2023-05-19T21:34:59.989Z,13.81
2023-05-19T21:37:28.663Z,13.80
2023-05-19T21:39:57.326Z,13.75
2023-05-19T21:42:25.966Z,13.71
2023-05-19T21:44:54.860Z,13.70
2023-05-19T21:47:23.693Z,13.65
2023-05-19T21:49:53.705Z,13.62
2023-05-19T21:52:22.932Z,13.58
2023-05-19T21:54:51.928Z,13.52
2023-05-19T21:57:20.644Z,13.51
2023-05-19T21:59:49.950Z,13.48
2023-05-19T22:02:18.650Z,13.43
2023-05-19T22:04:47.310Z,13.42
2023-05-19T22:07:17.467Z,13.36
2023-05-19T22:09:48.160Z,13.36
2023-05-19T22:12:17.719Z,13.28
2023-05-19T22:14:46.592Z,13.20
2023-05-19T22:17:15.391Z,13.18
2023-05-19T22:19:43.974Z,13.17
2023-05-19T22:22:14.300Z,13.12
2023-05-19T22:24:44.848Z,13.08
2023-05-19T22:27:13.459Z,13.10
2023-05-19T22:29:42.088Z,13.12
2023-05-19T22:32:12.157Z,13.13
2023-05-19T22:34:41.066Z,13.10
2023-05-19T22:37:09.697Z,13.11
2023-05-19T22:39:39.380Z,13.04
2023-05-19T22:42:09.392Z,13.13
2023-05-19T22:44:38.054Z,13.08
2023-05-19T22:47:06.838Z,13.07
2023-05-19T22:49:35.732Z,13.02
2023-05-19T22:52:04.626Z,12.98
2023-05-19T22:54:33.327Z,12.95
2023-05-19T22:57:03.344Z,12.87
2023-05-19T22:59:33.621Z,12.87
2023-05-19T23:02:02.511Z,12.87
2023-05-19T23:04:31.446Z,12.88
2023-05-19T23:07:00.199Z,12.88
2023-05-19T23:09:29.099Z,12.89
2023-05-19T23:11:57.791Z,12.84
2023-05-19T23:14:26.826Z,12.82
2023-05-19T23:16:56.953Z,12.81
2023-05-19T23:19:25.815Z,12.81
2023-05-19T23:21:54.492Z,12.76
2023-05-19T23:24:23.159Z,12.72
2023-05-19T23:26:52.023Z,12.77
2023-05-19T23:29:20.735Z,12.75
2023-05-19T23:31:49.411Z,12.77
2023-05-19T23:34:19.457Z,12.72
2023-05-19T23:36:48.236Z,12.69
2023-05-19T23:39:16.933Z,12.71
2023-05-19T23:41:46.101Z,12.73
2023-05-19T23:44:14.757Z,12.67
2023-05-19T23:46:43.492Z,12.62
2023-05-19T23:49:12.146Z,12.61
2023-05-19T23:51:42.962Z,12.57
2023-05-19T23:54:11.645Z,12.60
2023-05-19T23:56:40.375Z,12.57
2023-05-19T23:59:09.018Z,12.59
